sensor_id;sensor_type;location;lat;lon;timestamp;P1;durP1;ratioP1;P2;durP2;ratioP2
38557;SDS011;24333;42.626;23.308;2022-08-03T01:02:39;3.00;;;1.60;;
38557;SDS011;24333;42.626;23.308;2022-08-03T01:05:13;1.70;;;1.50;;
38557;SDS011;24333;42.626;23.308;2022-08-03T01:07:59;3.55;;;1.80;;
38557;SDS011;24333;42.626;23.308;2022-08-03T01:16:17;3.17;;;1.52;;
38557;SDS011;24333;42.626;23.308;2022-08-03T01:43:26;3.58;;;1.98;;
38557;SDS011;24333;42.626;23.308;2022-08-03T01:49:08;3.95;;;1.60;;
38557;SDS011;24333;42.626;23.308;2022-08-03T01:57:37;2.72;;;1.80;;
38557;SDS011;24333;42.626;23.308;2022-08-03T02:00:36;1.70;;;1.60;;
38557;SDS011;24333;42.626;23.308;2022-08-03T02:03:04;2.72;;;1.80;;
38557;SDS011;24333;42.626;23.308;2022-08-03T02:05:31;3.25;;;1.88;;
38557;SDS011;24333;42.626;23.308;2022-08-03T02:07:59;2.33;;;1.40;;
38557;SDS011;24333;42.626;23.308;2022-08-03T02:23:24;1.75;;;1.50;;
38557;SDS011;24333;42.626;23.308;2022-08-03T02:32:47;4.43;;;1.60;;
38557;SDS011;24333;42.626;23.308;2022-08-03T02:35:21;3.05;;;1.60;;
38557;SDS011;24333;42.626;23.308;2022-08-03T02:45:58;2.13;;;1.55;;
38557;SDS011;24333;42.626;23.308;2022-08-03T02:48:25;4.15;;;1.38;;
38557;SDS011;24333;42.626;23.308;2022-08-03T02:50:56;2.53;;;1.70;;
38557;SDS011;24333;42.626;23.308;2022-08-03T02:53:23;1.60;;;1.42;;
38557;SDS011;24333;42.626;23.308;2022-08-03T03:42:43;6.00;;;3.90;;
38557;SDS011;24333;42.626;23.308;2022-08-03T03:45:10;6.57;;;3.17;;
38557;SDS011;24333;42.626;23.308;2022-08-03T03:47:46;5.82;;;3.35;;
38557;SDS011;24333;42.626;23.308;2022-08-03T03:50:25;5.07;;;2.65;;
38557;SDS011;24333;42.626;23.308;2022-08-03T03:52:55;7.88;;;3.50;;
38557;SDS011;24333;42.626;23.308;2022-08-03T04:13:30;5.65;;;2.70;;
38557;SDS011;24333;42.626;23.308;2022-08-03T04:16:02;5.28;;;2.25;;
38557;SDS011;24333;42.626;23.308;2022-08-03T04:18:29;5.30;;;2.38;;
38557;SDS011;24333;42.626;23.308;2022-08-03T04:21:00;5.57;;;2.55;;
38557;SDS011;24333;42.626;23.308;2022-08-03T04:23:28;5.00;;;2.17;;
38557;SDS011;24333;42.626;23.308;2022-08-03T04:28:52;3.45;;;1.95;;
38557;SDS011;24333;42.626;23.308;2022-08-03T04:31:34;3.58;;;1.95;;
38557;SDS011;24333;42.626;23.308;2022-08-03T04:34:06;4.13;;;2.20;;
38557;SDS011;24333;42.626;23.308;2022-08-03T06:43:27;19.55;;;4.85;;
38557;SDS011;24333;42.626;23.308;2022-08-03T06:45:55;12.43;;;4.75;;
38557;SDS011;24333;42.626;23.308;2022-08-03T06:48:27;11.10;;;4.15;;
38557;SDS011;24333;42.626;23.308;2022-08-03T06:50:54;9.95;;;4.72;;
38557;SDS011;24333;42.626;23.308;2022-08-03T06:56:10;14.48;;;4.32;;
38557;SDS011;24333;42.626;23.308;2022-08-03T06:58:37;8.52;;;4.43;;
38557;SDS011;24333;42.626;23.308;2022-08-03T07:01:03;11.10;;;4.20;;
38557;SDS011;24333;42.626;23.308;2022-08-03T07:46:47;11.80;;;4.78;;
38557;SDS011;24333;42.626;23.308;2022-08-03T07:49:14;8.48;;;3.50;;
38557;SDS011;24333;42.626;23.308;2022-08-03T07:51:41;6.10;;;3.10;;
38557;SDS011;24333;42.626;23.308;2022-08-03T09:08:56;6.25;;;2.88;;
38557;SDS011;24333;42.626;23.308;2022-08-03T09:11:22;4.53;;;2.75;;
38557;SDS011;24333;42.626;23.308;2022-08-03T09:13:48;7.50;;;2.97;;
38557;SDS011;24333;42.626;23.308;2022-08-03T09:16:15;9.57;;;2.40;;
38557;SDS011;24333;42.626;23.308;2022-08-03T09:18:47;3.30;;;2.28;;
38557;SDS011;24333;42.626;23.308;2022-08-03T09:21:17;4.97;;;2.20;;
38557;SDS011;24333;42.626;23.308;2022-08-03T09:24:02;9.55;;;2.58;;
38557;SDS011;24333;42.626;23.308;2022-08-03T09:26:29;3.22;;;2.33;;
38557;SDS011;24333;42.626;23.308;2022-08-03T09:28:56;4.43;;;2.63;;
38557;SDS011;24333;42.626;23.308;2022-08-03T09:32:00;5.85;;;2.70;;
38557;SDS011;24333;42.626;23.308;2022-08-03T09:34:42;5.05;;;2.85;;
38557;SDS011;24333;42.626;23.308;2022-08-03T09:37:26;9.70;;;2.90;;
38557;SDS011;24333;42.626;23.308;2022-08-03T09:39:52;3.17;;;2.22;;
38557;SDS011;24333;42.626;23.308;2022-08-03T09:42:18;2.53;;;2.08;;
38557;SDS011;24333;42.626;23.308;2022-08-03T09:44:47;7.70;;;2.40;;
38557;SDS011;24333;42.626;23.308;2022-08-03T09:47:15;5.43;;;2.78;;
38557;SDS011;24333;42.626;23.308;2022-08-03T10:11:12;4.82;;;2.30;;
38557;SDS011;24333;42.626;23.308;2022-08-03T10:13:54;8.30;;;2.40;;
38557;SDS011;24333;42.626;23.308;2022-08-03T10:16:19;4.57;;;2.47;;
38557;SDS011;24333;42.626;23.308;2022-08-03T10:18:45;3.50;;;3.00;;
38557;SDS011;24333;42.626;23.308;2022-08-03T10:21:10;6.25;;;3.72;;
38557;SDS011;24333;42.626;23.308;2022-08-03T10:23:41;6.15;;;3.63;;
38557;SDS011;24333;42.626;23.308;2022-08-03T10:26:07;8.68;;;3.25;;
38557;SDS011;24333;42.626;23.308;2022-08-03T10:28:41;3.05;;;2.75;;
38557;SDS011;24333;42.626;23.308;2022-08-03T10:31:13;3.67;;;3.08;;
38557;SDS011;24333;42.626;23.308;2022-08-03T10:33:43;3.38;;;2.67;;
38557;SDS011;24333;42.626;23.308;2022-08-03T10:36:11;8.30;;;2.40;;
38557;SDS011;24333;42.626;23.308;2022-08-03T10:51:56;4.47;;;2.77;;
38557;SDS011;24333;42.626;23.308;2022-08-03T10:54:40;6.40;;;3.42;;
38557;SDS011;24333;42.626;23.308;2022-08-03T11:00:18;3.42;;;3.13;;
38557;SDS011;24333;42.626;23.308;2022-08-03T11:06:12;2.97;;;2.60;;
38557;SDS011;24333;42.626;23.308;2022-08-03T11:08:42;6.43;;;3.00;;
38557;SDS011;24333;42.626;23.308;2022-08-03T11:16:22;3.85;;;2.60;;
38557;SDS011;24333;42.626;23.308;2022-08-03T11:21:52;2.88;;;2.10;;
38557;SDS011;24333;42.626;23.308;2022-08-03T11:27:34;6.57;;;2.38;;
38557;SDS011;24333;42.626;23.308;2022-08-03T11:30:06;7.70;;;2.40;;
38557;SDS011;24333;42.626;23.308;2022-08-03T11:32:50;6.57;;;2.45;;
38557;SDS011;24333;42.626;23.308;2022-08-03T11:38:22;3.63;;;2.60;;
38557;SDS011;24333;42.626;23.308;2022-08-03T11:40:51;3.97;;;3.03;;
38557;SDS011;24333;42.626;23.308;2022-08-03T11:51:18;4.03;;;3.63;;
38557;SDS011;24333;42.626;23.308;2022-08-03T12:27:29;3.63;;;2.17;;
38557;SDS011;24333;42.626;23.308;2022-08-03T12:29:55;2.42;;;1.80;;
38557;SDS011;24333;42.626;23.308;2022-08-03T12:32:37;6.13;;;1.98;;
38557;SDS011;24333;42.626;23.308;2022-08-03T13:29:37;1.98;;;1.65;;
38557;SDS011;24333;42.626;23.308;2022-08-03T13:32:07;2.33;;;1.73;;
38557;SDS011;24333;42.626;23.308;2022-08-03T13:45:16;4.18;;;2.15;;
38557;SDS011;24333;42.626;23.308;2022-08-03T13:47:41;12.85;;;2.58;;
38557;SDS011;24333;42.626;23.308;2022-08-03T13:53:51;4.82;;;2.50;;
38557;SDS011;24333;42.626;23.308;2022-08-03T14:09:58;4.97;;;2.63;;
38557;SDS011;24333;42.626;23.308;2022-08-03T14:12:25;6.55;;;3.10;;
38557;SDS011;24333;42.626;23.308;2022-08-03T14:14:51;6.68;;;2.92;;
38557;SDS011;24333;42.626;23.308;2022-08-03T14:30:17;8.30;;;3.67;;
38557;SDS011;24333;42.626;23.308;2022-08-03T14:32:56;7.85;;;3.90;;
38557;SDS011;24333;42.626;23.308;2022-08-03T15:09:46;3.22;;;2.53;;
38557;SDS011;24333;42.626;23.308;2022-08-03T15:12:12;2.72;;;2.10;;
38557;SDS011;24333;42.626;23.308;2022-08-03T15:14:37;2.03;;;1.83;;
38557;SDS011;24333;42.626;23.308;2022-08-03T15:17:03;7.13;;;2.00;;
38557;SDS011;24333;42.626;23.308;2022-08-03T15:19:29;5.07;;;2.10;;
38557;SDS011;24333;42.626;23.308;2022-08-03T15:21:54;5.53;;;2.58;;
38557;SDS011;24333;42.626;23.308;2022-08-03T15:24:20;7.60;;;3.03;;
38557;SDS011;24333;42.626;23.308;2022-08-03T15:26:45;4.50;;;2.95;;
38557;SDS011;24333;42.626;23.308;2022-08-03T15:29:11;4.13;;;3.10;;
38557;SDS011;24333;42.626;23.308;2022-08-03T15:31:37;9.57;;;3.83;;
38557;SDS011;24333;42.626;23.308;2022-08-03T15:34:06;23.90;;;5.22;;
38557;SDS011;24333;42.626;23.308;2022-08-03T15:36:31;18.90;;;6.00;;
38557;SDS011;24333;42.626;23.308;2022-08-03T17:02:46;6.50;;;3.78;;
38557;SDS011;24333;42.626;23.308;2022-08-03T17:05:15;6.35;;;4.50;;
38557;SDS011;24333;42.626;23.308;2022-08-03T17:07:43;6.85;;;4.75;;
38557;SDS011;24333;42.626;23.308;2022-08-03T17:10:15;8.73;;;4.30;;
38557;SDS011;24333;42.626;23.308;2022-08-03T17:20:40;5.00;;;3.55;;
38557;SDS011;24333;42.626;23.308;2022-08-03T17:23:43;5.45;;;4.00;;
38557;SDS011;24333;42.626;23.308;2022-08-03T17:26:16;7.25;;;4.43;;
38557;SDS011;24333;42.626;23.308;2022-08-03T17:35:22;6.72;;;5.00;;
38557;SDS011;24333;42.626;23.308;2022-08-03T17:40:29;7.32;;;5.57;;
38557;SDS011;24333;42.626;23.308;2022-08-03T20:39:46;4.88;;;2.95;;
38557;SDS011;24333;42.626;23.308;2022-08-03T20:50:41;4.90;;;3.28;;
38557;SDS011;24333;42.626;23.308;2022-08-03T20:53:10;6.05;;;3.35;;
38557;SDS011;24333;42.626;23.308;2022-08-03T20:55:37;11.75;;;3.30;;
38557;SDS011;24333;42.626;23.308;2022-08-03T20:58:05;8.23;;;3.33;;
38557;SDS011;24333;42.626;23.308;2022-08-03T21:00:31;4.40;;;3.65;;
38557;SDS011;24333;42.626;23.308;2022-08-03T21:02:57;4.90;;;3.90;;
38557;SDS011;24333;42.626;23.308;2022-08-03T21:05:22;4.28;;;3.42;;
38557;SDS011;24333;42.626;23.308;2022-08-03T21:07:53;4.90;;;3.47;;
38557;SDS011;24333;42.626;23.308;2022-08-03T21:10:26;9.95;;;4.22;;
38557;SDS011;24333;42.626;23.308;2022-08-03T21:13:06;9.50;;;4.63;;
38557;SDS011;24333;42.626;23.308;2022-08-03T21:15:41;8.85;;;4.68;;
38557;SDS011;24333;42.626;23.308;2022-08-03T21:18:11;4.32;;;3.83;;
38557;SDS011;24333;42.626;23.308;2022-08-03T21:20:40;6.00;;;3.45;;
38557;SDS011;24333;42.626;23.308;2022-08-03T21:23:12;4.63;;;3.75;;
38557;SDS011;24333;42.626;23.308;2022-08-03T21:25:40;4.95;;;3.58;;
38557;SDS011;24333;42.626;23.308;2022-08-03T21:28:08;5.78;;;3.00;;
38557;SDS011;24333;42.626;23.308;2022-08-03T21:54:02;5.70;;;3.60;;
38557;SDS011;24333;42.626;23.308;2022-08-03T21:56:50;6.30;;;3.63;;
38557;SDS011;24333;42.626;23.308;2022-08-03T21:59:16;5.30;;;3.42;;
38557;SDS011;24333;42.626;23.308;2022-08-03T22:02:10;4.30;;;2.90;;
38557;SDS011;24333;42.626;23.308;2022-08-03T22:04:36;4.75;;;3.13;;
38557;SDS011;24333;42.626;23.308;2022-08-03T22:07:02;5.70;;;3.60;;
38557;SDS011;24333;42.626;23.308;2022-08-03T22:09:29;6.15;;;3.00;;
38557;SDS011;24333;42.626;23.308;2022-08-03T22:12:11;6.32;;;3.33;;
38557;SDS011;24333;42.626;23.308;2022-08-03T22:14:40;5.03;;;3.03;;
38557;SDS011;24333;42.626;23.308;2022-08-03T22:17:08;3.60;;;2.78;;
38557;SDS011;24333;42.626;23.308;2022-08-03T22:19:39;3.88;;;3.13;;
38557;SDS011;24333;42.626;23.308;2022-08-03T22:22:10;5.47;;;3.40;;
38557;SDS011;24333;42.626;23.308;2022-08-03T22:24:38;5.80;;;3.38;;
38557;SDS011;24333;42.626;23.308;2022-08-03T22:27:11;5.75;;;3.08;;
38557;SDS011;24333;42.626;23.308;2022-08-03T22:29:57;4.57;;;2.95;;
38557;SDS011;24333;42.626;23.308;2022-08-03T22:32:24;7.88;;;3.13;;
38557;SDS011;24333;42.626;23.308;2022-08-03T22:34:55;6.82;;;3.40;;
38557;SDS011;24333;42.626;23.308;2022-08-03T22:37:24;5.65;;;3.28;;
38557;SDS011;24333;42.626;23.308;2022-08-03T22:40:12;5.95;;;3.30;;
38557;SDS011;24333;42.626;23.308;2022-08-03T22:42:41;8.00;;;3.53;;
